createdAt,value
2019-02-15T00:09:59.000Z,25.24
2019-02-15T00:19:56.000Z,25.15
2019-02-15T00:29:56.000Z,25.09
2019-02-15T00:39:56.000Z,25.05
2019-02-15T00:49:56.000Z,24.97
2019-02-15T00:59:56.000Z,24.94
2019-02-15T01:09:57.000Z,24.9
2019-02-15T01:19:57.000Z,24.83
2019-02-15T01:29:57.000Z,24.77
2019-02-15T01:39:57.000Z,24.74
2019-02-15T01:49:57.000Z,24.67
2019-02-15T01:59:57.000Z,24.62
2019-02-15T02:09:57.000Z,24.6
2019-02-15T02:19:57.000Z,24.56
2019-02-15T02:29:57.000Z,24.53
2019-02-15T02:39:57.000Z,24.46
2019-02-15T02:49:57.000Z,24.41
2019-02-15T02:59:57.000Z,24.39
2019-02-15T03:10:00.000Z,24.34
2019-02-15T03:19:57.000Z,24.38
2019-02-15T03:29:57.000Z,24.29
2019-02-15T03:39:57.000Z,24.27
2019-02-15T03:49:58.000Z,24.24
2019-02-15T03:59:57.000Z,24.21
2019-02-15T04:09:57.000Z,24.16
2019-02-15T04:19:57.000Z,24.14
2019-02-15T04:29:59.000Z,24.11
2019-02-15T04:39:57.000Z,24.06
2019-02-15T04:49:57.000Z,24.06
2019-02-15T04:59:57.000Z,24.07
2019-02-15T05:09:59.000Z,24.07
2019-02-15T05:19:57.000Z,24.05
2019-02-15T05:29:57.000Z,24.06
2019-02-15T05:39:57.000Z,24.06
2019-02-15T05:49:57.000Z,24.02
2019-02-15T05:59:57.000Z,24.01
2019-02-15T06:09:57.000Z,23.97
2019-02-15T06:19:57.000Z,23.96
2019-02-15T06:29:57.000Z,24.02
2019-02-15T06:39:57.000Z,23.99
2019-02-15T06:49:57.000Z,24.07
2019-02-15T06:59:57.000Z,24.01
2019-02-15T07:09:57.000Z,24.07
2019-02-15T07:19:57.000Z,24.08
2019-02-15T07:29:58.000Z,24.08
2019-02-15T07:39:57.000Z,24.05
2019-02-15T07:49:57.000Z,24.06
2019-02-15T07:59:57.000Z,24.14
2019-02-15T08:09:57.000Z,24.22
2019-02-15T08:19:57.000Z,24.19
2019-02-15T08:29:57.000Z,24.24
2019-02-15T08:39:57.000Z,24.29
2019-02-15T08:49:57.000Z,24.31
2019-02-15T08:59:58.000Z,24.35
2019-02-15T09:09:57.000Z,24.43
2019-02-15T09:19:58.000Z,24.59
2019-02-15T09:29:58.000Z,24.74
2019-02-15T09:39:58.000Z,24.97
2019-02-15T09:49:58.000Z,25.18
2019-02-15T09:59:58.000Z,25.42
2019-02-15T10:09:58.000Z,25.61
2019-02-15T10:19:58.000Z,25.75
2019-02-15T10:29:59.000Z,25.93
2019-02-15T10:39:58.000Z,26.17
2019-02-15T10:49:58.000Z,26.37
2019-02-15T10:59:58.000Z,26.62
2019-02-15T11:09:58.000Z,26.68
2019-02-15T11:19:58.000Z,26.96
2019-02-15T11:29:58.000Z,27.2
2019-02-15T11:39:58.000Z,27.36
2019-02-15T11:49:58.000Z,27.5
2019-02-15T11:59:58.000Z,27.55
2019-02-15T12:09:58.000Z,27.57
2019-02-15T12:19:58.000Z,27.59
2019-02-15T12:29:58.000Z,27.62
2019-02-15T12:39:58.000Z,27.67
2019-02-15T12:49:58.000Z,27.68
2019-02-15T12:59:58.000Z,27.63
2019-02-15T13:09:58.000Z,27.45
2019-02-15T13:19:58.000Z,27.41
2019-02-15T13:39:58.000Z,27.27
2019-02-15T13:49:58.000Z,27.17
2019-02-15T13:59:58.000Z,27.06
2019-02-15T14:09:58.000Z,27
2019-02-15T14:19:58.000Z,26.94
2019-02-15T14:30:00.000Z,26.83
2019-02-15T14:39:58.000Z,26.76
2019-02-15T14:50:00.000Z,26.65
2019-02-15T14:59:58.000Z,26.59
2019-02-15T15:09:58.000Z,26.49
2019-02-15T15:19:58.000Z,26.41
2019-02-15T15:29:58.000Z,26.34
2019-02-15T15:39:58.000Z,26.24
2019-02-15T15:49:58.000Z,26.15
2019-02-15T15:59:58.000Z,26.06
2019-02-15T16:09:59.000Z,26
2019-02-15T16:19:59.000Z,25.91
2019-02-15T16:29:58.000Z,25.96
2019-02-15T16:39:58.000Z,25.82
2019-02-15T16:49:58.000Z,25.79
2019-02-15T16:59:58.000Z,25.72
2019-02-15T17:09:59.000Z,25.68
2019-02-15T17:19:58.000Z,25.7
2019-02-15T17:39:59.000Z,25.61
2019-02-15T17:49:59.000Z,25.6
2019-02-15T17:59:59.000Z,25.56
2019-02-15T18:19:59.000Z,25.49
2019-02-15T18:29:59.000Z,25.43
2019-02-15T18:39:59.000Z,25.39
2019-02-15T18:49:59.000Z,25.36
2019-02-15T18:59:59.000Z,25.31
2019-02-15T19:09:59.000Z,25.3
2019-02-15T19:19:59.000Z,25.22
2019-02-15T19:29:59.000Z,25.16
2019-02-15T19:39:59.000Z,25.17
2019-02-15T19:49:59.000Z,25.14
2019-02-15T19:59:59.000Z,25.07
2019-02-15T20:09:59.000Z,25.05
2019-02-15T20:19:59.000Z,24.93
2019-02-15T20:29:59.000Z,24.91
2019-02-15T20:49:59.000Z,24.75
2019-02-15T20:59:59.000Z,24.72
2019-02-15T21:09:59.000Z,24.64
2019-02-15T21:19:59.000Z,24.6
2019-02-15T21:29:59.000Z,24.59
2019-02-15T21:39:59.000Z,24.53
2019-02-15T21:49:59.000Z,24.52
2019-02-15T22:10:01.000Z,24.33
2019-02-15T22:19:59.000Z,24.27
2019-02-15T22:29:59.000Z,24.25
2019-02-15T22:39:59.000Z,24.17
2019-02-15T22:49:59.000Z,24.11
2019-02-15T22:59:59.000Z,24.01
2019-02-15T23:09:59.000Z,23.98
2019-02-15T23:19:59.000Z,23.87
2019-02-15T23:29:59.000Z,23.83
2019-02-15T23:39:59.000Z,23.71
2019-02-15T23:50:00.000Z,23.71
2019-02-15T23:59:59.000Z,23.65
